sensor_id;sensor_type;location;lat;lon;timestamp;temperature;humidity
20035;DHT22;10178;48.034;9.800;2023-02-13T00:00:51;4.20;99.90
20035;DHT22;10178;48.034;9.800;2023-02-13T00:03:17;4.30;99.90
20035;DHT22;10178;48.034;9.800;2023-02-13T00:05:42;4.20;99.90
20035;DHT22;10178;48.034;9.800;2023-02-13T00:08:08;4.10;99.90
20035;DHT22;10178;48.034;9.800;2023-02-13T00:10:34;4.20;99.90
20035;DHT22;10178;48.034;9.800;2023-02-13T00:12:59;4.20;99.90
20035;DHT22;10178;48.034;9.800;2023-02-13T00:15:25;4.20;99.90
20035;DHT22;10178;48.034;9.800;2023-02-13T00:17:50;4.20;99.90
20035;DHT22;10178;48.034;9.800;2023-02-13T00:20:16;4.20;99.90
20035;DHT22;10178;48.034;9.800;2023-02-13T00:22:42;4.10;99.90
20035;DHT22;10178;48.034;9.800;2023-02-13T00:25:08;4.20;99.90
20035;DHT22;10178;48.034;9.800;2023-02-13T00:27:33;4.10;99.90
20035;DHT22;10178;48.034;9.800;2023-02-13T00:29:59;4.10;99.90
20035;DHT22;10178;48.034;9.800;2023-02-13T00:32:25;4.10;99.90
20035;DHT22;10178;48.034;9.800;2023-02-13T00:34:51;4.20;99.90
20035;DHT22;10178;48.034;9.800;2023-02-13T00:37:16;4.10;99.90
20035;DHT22;10178;48.034;9.800;2023-02-13T00:39:42;4.10;99.90
20035;DHT22;10178;48.034;9.800;2023-02-13T00:42:08;4.10;99.90
20035;DHT22;10178;48.034;9.800;2023-02-13T00:44:33;4.10;99.90
20035;DHT22;10178;48.034;9.800;2023-02-13T00:46:59;4.10;99.90
20035;DHT22;10178;48.034;9.800;2023-02-13T00:49:24;4.20;99.90
20035;DHT22;10178;48.034;9.800;2023-02-13T00:51:50;4.10;99.90
20035;DHT22;10178;48.034;9.800;2023-02-13T00:54:16;4.10;99.90
20035;DHT22;10178;48.034;9.800;2023-02-13T00:56:41;4.20;99.90
20035;DHT22;10178;48.034;9.800;2023-02-13T00:59:07;4.20;99.90
20035;DHT22;10178;48.034;9.800;2023-02-13T01:01:33;4.10;99.90
20035;DHT22;10178;48.034;9.800;2023-02-13T01:03:58;4.20;99.90
20035;DHT22;10178;48.034;9.800;2023-02-13T01:06:24;4.10;99.90
20035;DHT22;10178;48.034;9.800;2023-02-13T01:08:50;4.20;99.90
20035;DHT22;10178;48.034;9.800;2023-02-13T01:11:15;4.10;99.90
20035;DHT22;10178;48.034;9.800;2023-02-13T01:13:43;4.20;99.90
20035;DHT22;10178;48.034;9.800;2023-02-13T01:16:09;4.20;99.90
20035;DHT22;10178;48.034;9.800;2023-02-13T01:18:37;4.20;99.90
20035;DHT22;10178;48.034;9.800;2023-02-13T01:21:07;4.20;99.90
20035;DHT22;10178;48.034;9.800;2023-02-13T01:23:35;4.20;99.90
20035;DHT22;10178;48.034;9.800;2023-02-13T01:26:22;4.00;99.90
20035;DHT22;10178;48.034;9.800;2023-02-13T01:28:53;4.00;99.90
20035;DHT22;10178;48.034;9.800;2023-02-13T01:31:25;4.00;99.90
20035;DHT22;10178;48.034;9.800;2023-02-13T01:33:51;4.10;99.90
20035;DHT22;10178;48.034;9.800;2023-02-13T01:36:22;4.10;99.90
20035;DHT22;10178;48.034;9.800;2023-02-13T01:38:52;4.10;99.90
20035;DHT22;10178;48.034;9.800;2023-02-13T01:41:19;4.10;99.90
20035;DHT22;10178;48.034;9.800;2023-02-13T01:47:46;4.10;99.90
20035;DHT22;10178;48.034;9.800;2023-02-13T01:53:07;4.10;99.90
20035;DHT22;10178;48.034;9.800;2023-02-13T01:56:23;4.10;99.90
20035;DHT22;10178;48.034;9.800;2023-02-13T01:58:26;4.00;99.90
20035;DHT22;10178;48.034;9.800;2023-02-13T02:00:53;4.00;99.90
20035;DHT22;10178;48.034;9.800;2023-02-13T02:03:42;4.10;99.90
20035;DHT22;10178;48.034;9.800;2023-02-13T02:06:17;4.00;99.90
20035;DHT22;10178;48.034;9.800;2023-02-13T02:08:46;4.00;99.90
20035;DHT22;10178;48.034;9.800;2023-02-13T02:14:18;4.00;99.90
20035;DHT22;10178;48.034;9.800;2023-02-13T02:16:44;3.80;99.90
20035;DHT22;10178;48.034;9.800;2023-02-13T02:19:23;3.90;99.90
20035;DHT22;10178;48.034;9.800;2023-02-13T02:27:38;4.00;99.90
20035;DHT22;10178;48.034;9.800;2023-02-13T02:35:40;3.80;99.90
20035;DHT22;10178;48.034;9.800;2023-02-13T02:41:15;4.00;99.90
20035;DHT22;10178;48.034;9.800;2023-02-13T02:53:59;4.10;99.90
20035;DHT22;10178;48.034;9.800;2023-02-13T02:56:36;4.00;99.90
20035;DHT22;10178;48.034;9.800;2023-02-13T02:59:09;4.00;99.90
20035;DHT22;10178;48.034;9.800;2023-02-13T03:01:55;4.10;99.90
20035;DHT22;10178;48.034;9.800;2023-02-13T03:04:47;4.00;99.90
20035;DHT22;10178;48.034;9.800;2023-02-13T03:07:32;4.00;99.90
20035;DHT22;10178;48.034;9.800;2023-02-13T03:10:10;4.00;99.90
20035;DHT22;10178;48.034;9.800;2023-02-13T03:13:00;4.00;99.90
20035;DHT22;10178;48.034;9.800;2023-02-13T03:15:47;4.10;99.90
20035;DHT22;10178;48.034;9.800;2023-02-13T03:18:42;4.10;99.90
20035;DHT22;10178;48.034;9.800;2023-02-13T03:27:07;4.10;99.90
20035;DHT22;10178;48.034;9.800;2023-02-13T03:29:45;4.10;99.90
20035;DHT22;10178;48.034;9.800;2023-02-13T03:35:33;4.10;99.90
20035;DHT22;10178;48.034;9.800;2023-02-13T03:38:29;4.00;99.90
20035;DHT22;10178;48.034;9.800;2023-02-13T03:41:18;3.90;99.90
20035;DHT22;10178;48.034;9.800;2023-02-13T03:46:35;4.00;99.90
20035;DHT22;10178;48.034;9.800;2023-02-13T03:49:28;4.00;99.90
20035;DHT22;10178;48.034;9.800;2023-02-13T03:52:24;4.00;99.90
20035;DHT22;10178;48.034;9.800;2023-02-13T03:55:03;4.00;99.90
20035;DHT22;10178;48.034;9.800;2023-02-13T03:57:55;4.10;99.90
20035;DHT22;10178;48.034;9.800;2023-02-13T04:00:53;4.00;99.90
20035;DHT22;10178;48.034;9.800;2023-02-13T04:03:30;4.00;99.90
20035;DHT22;10178;48.034;9.800;2023-02-13T04:06:08;4.00;99.90
20035;DHT22;10178;48.034;9.800;2023-02-13T04:08:34;3.80;99.90
20035;DHT22;10178;48.034;9.800;2023-02-13T04:14:04;3.70;99.90
20035;DHT22;10178;48.034;9.800;2023-02-13T04:16:55;3.90;99.90
20035;DHT22;10178;48.034;9.800;2023-02-13T04:19:24;3.40;99.90
20035;DHT22;10178;48.034;9.800;2023-02-13T04:21:56;3.50;99.90
20035;DHT22;10178;48.034;9.800;2023-02-13T04:24:22;3.70;99.90
20035;DHT22;10178;48.034;9.800;2023-02-13T04:26:48;3.80;99.90
20035;DHT22;10178;48.034;9.800;2023-02-13T04:29:13;3.90;99.90
20035;DHT22;10178;48.034;9.800;2023-02-13T04:31:39;3.60;99.90
20035;DHT22;10178;48.034;9.800;2023-02-13T04:34:05;3.70;99.90
20035;DHT22;10178;48.034;9.800;2023-02-13T04:36:31;3.90;99.90
20035;DHT22;10178;48.034;9.800;2023-02-13T04:38:57;4.00;99.90
20035;DHT22;10178;48.034;9.800;2023-02-13T04:41:22;4.00;99.90
20035;DHT22;10178;48.034;9.800;2023-02-13T04:43:48;4.00;99.90
20035;DHT22;10178;48.034;9.800;2023-02-13T04:46:13;4.10;99.90
20035;DHT22;10178;48.034;9.800;2023-02-13T04:48:39;4.00;99.90
20035;DHT22;10178;48.034;9.800;2023-02-13T04:51:05;4.00;99.90
20035;DHT22;10178;48.034;9.800;2023-02-13T04:53:31;4.10;99.90
20035;DHT22;10178;48.034;9.800;2023-02-13T04:55:56;4.10;99.90
20035;DHT22;10178;48.034;9.800;2023-02-13T04:58:22;4.10;99.90
20035;DHT22;10178;48.034;9.800;2023-02-13T05:00:47;4.10;99.90
20035;DHT22;10178;48.034;9.800;2023-02-13T05:03:13;3.80;99.90
20035;DHT22;10178;48.034;9.800;2023-02-13T05:05:39;3.90;99.90
20035;DHT22;10178;48.034;9.800;2023-02-13T05:08:06;4.00;99.90
20035;DHT22;10178;48.034;9.800;2023-02-13T05:10:31;3.70;99.90
20035;DHT22;10178;48.034;9.800;2023-02-13T05:12:58;3.00;99.90
20035;DHT22;10178;48.034;9.800;2023-02-13T05:15:23;2.70;99.90
20035;DHT22;10178;48.034;9.800;2023-02-13T05:17:49;2.60;99.90
20035;DHT22;10178;48.034;9.800;2023-02-13T05:20:15;2.30;99.90
20035;DHT22;10178;48.034;9.800;2023-02-13T05:22:48;2.10;99.90
20035;DHT22;10178;48.034;9.800;2023-02-13T05:25:35;2.00;99.90
20035;DHT22;10178;48.034;9.800;2023-02-13T05:28:01;2.20;99.90
20035;DHT22;10178;48.034;9.800;2023-02-13T05:30:27;2.40;99.90
20035;DHT22;10178;48.034;9.800;2023-02-13T05:32:53;2.80;99.90
20035;DHT22;10178;48.034;9.800;2023-02-13T05:35:23;3.00;99.90
20035;DHT22;10178;48.034;9.800;2023-02-13T05:37:49;3.20;99.90
20035;DHT22;10178;48.034;9.800;2023-02-13T05:40:14;3.50;99.90
20035;DHT22;10178;48.034;9.800;2023-02-13T05:42:41;3.50;99.90
20035;DHT22;10178;48.034;9.800;2023-02-13T05:45:07;3.60;99.90
20035;DHT22;10178;48.034;9.800;2023-02-13T05:47:33;3.60;99.90
20035;DHT22;10178;48.034;9.800;2023-02-13T05:49:59;3.70;99.90
20035;DHT22;10178;48.034;9.800;2023-02-13T05:52:24;3.70;99.90
20035;DHT22;10178;48.034;9.800;2023-02-13T05:54:51;3.60;99.90
20035;DHT22;10178;48.034;9.800;2023-02-13T05:57:16;3.40;99.90
20035;DHT22;10178;48.034;9.800;2023-02-13T05:59:42;3.40;99.90
20035;DHT22;10178;48.034;9.800;2023-02-13T06:02:08;3.30;99.90
20035;DHT22;10178;48.034;9.800;2023-02-13T06:04:33;3.20;99.90
20035;DHT22;10178;48.034;9.800;2023-02-13T06:06:59;3.40;99.90
20035;DHT22;10178;48.034;9.800;2023-02-13T06:09:24;3.30;99.90
20035;DHT22;10178;48.034;9.800;2023-02-13T06:11:50;3.10;99.90
20035;DHT22;10178;48.034;9.800;2023-02-13T06:14:15;3.30;99.90
20035;DHT22;10178;48.034;9.800;2023-02-13T06:16:41;3.40;99.90
20035;DHT22;10178;48.034;9.800;2023-02-13T06:19:07;3.20;99.90
20035;DHT22;10178;48.034;9.800;2023-02-13T06:21:33;3.50;99.90
20035;DHT22;10178;48.034;9.800;2023-02-13T06:24:06;3.40;99.90
20035;DHT22;10178;48.034;9.800;2023-02-13T06:26:32;3.00;99.90
20035;DHT22;10178;48.034;9.800;2023-02-13T06:28:58;3.10;99.90
20035;DHT22;10178;48.034;9.800;2023-02-13T06:31:23;3.10;99.90
20035;DHT22;10178;48.034;9.800;2023-02-13T06:33:49;3.30;99.90
20035;DHT22;10178;48.034;9.800;2023-02-13T06:36:15;3.00;99.90
20035;DHT22;10178;48.034;9.800;2023-02-13T06:38:40;3.10;99.90
20035;DHT22;10178;48.034;9.800;2023-02-13T06:41:06;2.50;99.90
20035;DHT22;10178;48.034;9.800;2023-02-13T06:43:31;2.20;99.90
20035;DHT22;10178;48.034;9.800;2023-02-13T06:45:57;2.10;99.90
20035;DHT22;10178;48.034;9.800;2023-02-13T06:48:23;2.00;99.90
20035;DHT22;10178;48.034;9.800;2023-02-13T06:50:49;1.80;99.90
20035;DHT22;10178;48.034;9.800;2023-02-13T06:53:17;1.70;99.90
20035;DHT22;10178;48.034;9.800;2023-02-13T06:55:44;1.70;99.90
20035;DHT22;10178;48.034;9.800;2023-02-13T06:58:09;2.10;99.90
20035;DHT22;10178;48.034;9.800;2023-02-13T07:00:35;2.00;99.90
20035;DHT22;10178;48.034;9.800;2023-02-13T07:03:03;2.00;99.90
20035;DHT22;10178;48.034;9.800;2023-02-13T07:05:29;1.80;99.90
20035;DHT22;10178;48.034;9.800;2023-02-13T07:07:55;1.70;99.90
20035;DHT22;10178;48.034;9.800;2023-02-13T07:10:21;1.60;99.90
20035;DHT22;10178;48.034;9.800;2023-02-13T07:12:46;1.50;99.90
20035;DHT22;10178;48.034;9.800;2023-02-13T07:15:12;1.50;99.90
20035;DHT22;10178;48.034;9.800;2023-02-13T07:17:37;1.50;99.90
20035;DHT22;10178;48.034;9.800;2023-02-13T07:20:04;1.30;99.90
20035;DHT22;10178;48.034;9.800;2023-02-13T07:22:33;1.20;99.90
20035;DHT22;10178;48.034;9.800;2023-02-13T07:24:59;1.20;99.90
20035;DHT22;10178;48.034;9.800;2023-02-13T07:27:26;1.00;99.90
20035;DHT22;10178;48.034;9.800;2023-02-13T07:29:54;1.00;99.90
20035;DHT22;10178;48.034;9.800;2023-02-13T07:32:21;0.90;99.90
20035;DHT22;10178;48.034;9.800;2023-02-13T07:34:46;0.90;99.90
20035;DHT22;10178;48.034;9.800;2023-02-13T07:37:12;0.90;99.90
20035;DHT22;10178;48.034;9.800;2023-02-13T07:39:37;1.20;99.90
20035;DHT22;10178;48.034;9.800;2023-02-13T07:42:04;1.20;99.90
20035;DHT22;10178;48.034;9.800;2023-02-13T07:44:30;1.40;99.90
20035;DHT22;10178;48.034;9.800;2023-02-13T07:46:56;1.70;99.90
20035;DHT22;10178;48.034;9.800;2023-02-13T07:49:21;2.10;99.90
20035;DHT22;10178;48.034;9.800;2023-02-13T07:51:47;2.20;99.90
20035;DHT22;10178;48.034;9.800;2023-02-13T07:54:12;1.90;99.90
20035;DHT22;10178;48.034;9.800;2023-02-13T07:56:38;1.60;99.90
20035;DHT22;10178;48.034;9.800;2023-02-13T07:59:04;2.00;99.90
20035;DHT22;10178;48.034;9.800;2023-02-13T08:01:29;2.40;99.90
20035;DHT22;10178;48.034;9.800;2023-02-13T08:03:55;2.70;99.90
20035;DHT22;10178;48.034;9.800;2023-02-13T08:06:20;2.90;99.90
20035;DHT22;10178;48.034;9.800;2023-02-13T08:08:46;3.00;99.90
20035;DHT22;10178;48.034;9.800;2023-02-13T08:11:27;3.00;99.90
20035;DHT22;10178;48.034;9.800;2023-02-13T08:14:13;3.20;99.90
20035;DHT22;10178;48.034;9.800;2023-02-13T08:16:38;3.40;99.90
20035;DHT22;10178;48.034;9.800;2023-02-13T08:19:04;3.40;99.90
20035;DHT22;10178;48.034;9.800;2023-02-13T08:21:29;3.40;99.90
20035;DHT22;10178;48.034;9.800;2023-02-13T08:23:55;3.30;99.90
20035;DHT22;10178;48.034;9.800;2023-02-13T08:26:21;3.30;99.90
20035;DHT22;10178;48.034;9.800;2023-02-13T08:28:47;3.40;99.90
20035;DHT22;10178;48.034;9.800;2023-02-13T08:31:12;3.40;99.90
20035;DHT22;10178;48.034;9.800;2023-02-13T08:33:38;3.30;99.90
20035;DHT22;10178;48.034;9.800;2023-02-13T08:36:06;3.00;99.90
20035;DHT22;10178;48.034;9.800;2023-02-13T08:38:32;2.50;99.90
20035;DHT22;10178;48.034;9.800;2023-02-13T08:40:57;1.90;99.90
20035;DHT22;10178;48.034;9.800;2023-02-13T08:43:23;1.70;99.90
20035;DHT22;10178;48.034;9.800;2023-02-13T08:45:49;1.80;99.90
20035;DHT22;10178;48.034;9.800;2023-02-13T08:48:15;1.60;99.90
20035;DHT22;10178;48.034;9.800;2023-02-13T08:50:40;1.60;99.90
20035;DHT22;10178;48.034;9.800;2023-02-13T08:53:06;1.30;99.90
20035;DHT22;10178;48.034;9.800;2023-02-13T08:55:32;1.20;99.90
20035;DHT22;10178;48.034;9.800;2023-02-13T08:58:01;1.10;99.90
20035;DHT22;10178;48.034;9.800;2023-02-13T09:00:28;1.60;99.90
20035;DHT22;10178;48.034;9.800;2023-02-13T09:02:54;2.00;99.90
20035;DHT22;10178;48.034;9.800;2023-02-13T09:05:20;2.00;99.90
20035;DHT22;10178;48.034;9.800;2023-02-13T09:07:45;2.10;99.90
20035;DHT22;10178;48.034;9.800;2023-02-13T09:10:11;2.60;99.90
20035;DHT22;10178;48.034;9.800;2023-02-13T09:12:37;2.80;99.90
20035;DHT22;10178;48.034;9.800;2023-02-13T09:15:03;2.90;99.90
20035;DHT22;10178;48.034;9.800;2023-02-13T09:17:29;2.50;99.90
20035;DHT22;10178;48.034;9.800;2023-02-13T09:19:55;1.90;99.90
20035;DHT22;10178;48.034;9.800;2023-02-13T09:22:20;1.80;99.90
20035;DHT22;10178;48.034;9.800;2023-02-13T09:24:46;2.00;99.90
20035;DHT22;10178;48.034;9.800;2023-02-13T09:27:11;2.10;99.90
20035;DHT22;10178;48.034;9.800;2023-02-13T09:29:37;2.20;99.90
20035;DHT22;10178;48.034;9.800;2023-02-13T09:32:04;2.30;99.90
20035;DHT22;10178;48.034;9.800;2023-02-13T09:34:29;2.20;99.90
20035;DHT22;10178;48.034;9.800;2023-02-13T09:36:55;1.80;99.90
20035;DHT22;10178;48.034;9.800;2023-02-13T09:39:20;1.50;99.90
20035;DHT22;10178;48.034;9.800;2023-02-13T09:41:48;1.20;99.90
20035;DHT22;10178;48.034;9.800;2023-02-13T09:44:19;1.10;99.90
20035;DHT22;10178;48.034;9.800;2023-02-13T09:49:38;1.90;99.90
20035;DHT22;10178;48.034;9.800;2023-02-13T09:52:04;2.20;99.90
20035;DHT22;10178;48.034;9.800;2023-02-13T09:54:30;2.20;99.90
20035;DHT22;10178;48.034;9.800;2023-02-13T10:08:02;3.40;99.90
20035;DHT22;10178;48.034;9.800;2023-02-13T10:13:22;3.40;99.90
20035;DHT22;10178;48.034;9.800;2023-02-13T10:18:28;3.60;99.90
20035;DHT22;10178;48.034;9.800;2023-02-13T10:20:59;3.60;99.90
20035;DHT22;10178;48.034;9.800;2023-02-13T10:26:04;3.70;99.90
20035;DHT22;10178;48.034;9.800;2023-02-13T10:28:38;3.80;99.90
20035;DHT22;10178;48.034;9.800;2023-02-13T10:31:09;3.80;99.90
20035;DHT22;10178;48.034;9.800;2023-02-13T10:33:49;3.80;99.90
20035;DHT22;10178;48.034;9.800;2023-02-13T10:36:21;3.70;99.90
20035;DHT22;10178;48.034;9.800;2023-02-13T10:39:25;3.50;99.90
20035;DHT22;10178;48.034;9.800;2023-02-13T10:44:45;3.60;99.90
20035;DHT22;10178;48.034;9.800;2023-02-13T10:50:19;3.10;99.90
20035;DHT22;10178;48.034;9.800;2023-02-13T10:58:46;3.60;99.90
20035;DHT22;10178;48.034;9.800;2023-02-13T11:04:03;3.30;99.90
20035;DHT22;10178;48.034;9.800;2023-02-13T11:06:35;3.50;99.90
20035;DHT22;10178;48.034;9.800;2023-02-13T11:09:04;3.70;99.90
20035;DHT22;10178;48.034;9.800;2023-02-13T11:11:37;3.70;99.90
20035;DHT22;10178;48.034;9.800;2023-02-13T11:17:05;3.70;99.90
20035;DHT22;10178;48.034;9.800;2023-02-13T11:19:36;3.80;99.90
20035;DHT22;10178;48.034;9.800;2023-02-13T11:22:14;4.00;99.90
20035;DHT22;10178;48.034;9.800;2023-02-13T11:24:48;3.90;99.90
20035;DHT22;10178;48.034;9.800;2023-02-13T11:27:15;4.00;99.90
20035;DHT22;10178;48.034;9.800;2023-02-13T11:29:55;4.00;99.90
20035;DHT22;10178;48.034;9.800;2023-02-13T11:32:29;4.00;99.90
20035;DHT22;10178;48.034;9.800;2023-02-13T11:34:56;4.00;99.90
20035;DHT22;10178;48.034;9.800;2023-02-13T11:37:27;4.00;99.90
20035;DHT22;10178;48.034;9.800;2023-02-13T11:39:56;4.00;99.90
20035;DHT22;10178;48.034;9.800;2023-02-13T11:42:29;4.00;99.90
20035;DHT22;10178;48.034;9.800;2023-02-13T11:45:05;4.00;99.90
20035;DHT22;10178;48.034;9.800;2023-02-13T11:47:44;4.00;99.90
20035;DHT22;10178;48.034;9.800;2023-02-13T11:53:08;4.10;99.90
20035;DHT22;10178;48.034;9.800;2023-02-13T11:58:32;4.10;99.90
20035;DHT22;10178;48.034;9.800;2023-02-13T12:04:25;4.10;99.90
20035;DHT22;10178;48.034;9.800;2023-02-13T12:07:11;4.10;99.90
20035;DHT22;10178;48.034;9.800;2023-02-13T12:09:39;4.10;99.90
20035;DHT22;10178;48.034;9.800;2023-02-13T12:12:06;4.10;99.90
20035;DHT22;10178;48.034;9.800;2023-02-13T12:14:42;4.00;99.90
20035;DHT22;10178;48.034;9.800;2023-02-13T12:17:16;4.00;99.90
20035;DHT22;10178;48.034;9.800;2023-02-13T12:19:47;4.10;99.90
20035;DHT22;10178;48.034;9.800;2023-02-13T12:22:26;4.10;99.90
20035;DHT22;10178;48.034;9.800;2023-02-13T12:25:13;4.20;99.90
20035;DHT22;10178;48.034;9.800;2023-02-13T12:36:09;4.10;99.90
20035;DHT22;10178;48.034;9.800;2023-02-13T12:38:59;4.10;99.90
20035;DHT22;10178;48.034;9.800;2023-02-13T12:44:32;4.10;99.90
20035;DHT22;10178;48.034;9.800;2023-02-13T12:47:27;4.10;99.90
20035;DHT22;10178;48.034;9.800;2023-02-13T12:56:03;4.20;99.90
20035;DHT22;10178;48.034;9.800;2023-02-13T12:58:52;4.20;99.90
20035;DHT22;10178;48.034;9.800;2023-02-13T13:01:49;4.10;99.90
20035;DHT22;10178;48.034;9.800;2023-02-13T13:04:26;4.10;99.90
20035;DHT22;10178;48.034;9.800;2023-02-13T13:07:26;4.10;99.90
20035;DHT22;10178;48.034;9.800;2023-02-13T13:12:44;4.10;99.90
20035;DHT22;10178;48.034;9.800;2023-02-13T13:15:29;4.10;99.90
20035;DHT22;10178;48.034;9.800;2023-02-13T13:17:59;4.10;99.90
20035;DHT22;10178;48.034;9.800;2023-02-13T13:28:41;4.30;99.90
20035;DHT22;10178;48.034;9.800;2023-02-13T13:31:08;4.20;99.90
20035;DHT22;10178;48.034;9.800;2023-02-13T13:33:35;4.30;99.90
20035;DHT22;10178;48.034;9.800;2023-02-13T13:41:59;4.40;99.90
20035;DHT22;10178;48.034;9.800;2023-02-13T13:48:13;4.30;99.90
20035;DHT22;10178;48.034;9.800;2023-02-13T13:50:28;4.30;99.90
20035;DHT22;10178;48.034;9.800;2023-02-13T13:53:19;4.30;99.90
20035;DHT22;10178;48.034;9.800;2023-02-13T13:58:45;4.20;99.90
20035;DHT22;10178;48.034;9.800;2023-02-13T14:01:32;4.10;99.90
20035;DHT22;10178;48.034;9.800;2023-02-13T14:03:59;4.20;99.90
20035;DHT22;10178;48.034;9.800;2023-02-13T14:09:06;4.30;99.90
20035;DHT22;10178;48.034;9.800;2023-02-13T14:11:43;4.30;99.90
20035;DHT22;10178;48.034;9.800;2023-02-13T14:16:59;3.70;99.90
20035;DHT22;10178;48.034;9.800;2023-02-13T14:19:30;3.90;99.90
20035;DHT22;10178;48.034;9.800;2023-02-13T14:24:50;4.20;99.90
20035;DHT22;10178;48.034;9.800;2023-02-13T14:27:21;4.20;99.90
20035;DHT22;10178;48.034;9.800;2023-02-13T14:29:48;4.30;99.90
20035;DHT22;10178;48.034;9.800;2023-02-13T14:32:21;4.30;99.90
20035;DHT22;10178;48.034;9.800;2023-02-13T14:34:56;4.30;99.90
20035;DHT22;10178;48.034;9.800;2023-02-13T14:37:36;4.30;99.90
20035;DHT22;10178;48.034;9.800;2023-02-13T14:43:20;4.30;99.90
20035;DHT22;10178;48.034;9.800;2023-02-13T14:49:00;4.40;99.90
20035;DHT22;10178;48.034;9.800;2023-02-13T14:51:37;4.40;99.90
20035;DHT22;10178;48.034;9.800;2023-02-13T14:56:44;4.30;99.90
20035;DHT22;10178;48.034;9.800;2023-02-13T14:59:17;4.30;99.90
20035;DHT22;10178;48.034;9.800;2023-02-13T15:01:54;4.30;99.90
20035;DHT22;10178;48.034;9.800;2023-02-13T15:04:39;4.40;99.90
20035;DHT22;10178;48.034;9.800;2023-02-13T15:07:13;4.40;99.90
20035;DHT22;10178;48.034;9.800;2023-02-13T15:09:45;4.40;99.90
20035;DHT22;10178;48.034;9.800;2023-02-13T15:12:34;4.30;99.90
20035;DHT22;10178;48.034;9.800;2023-02-13T15:15:16;4.30;99.90
20035;DHT22;10178;48.034;9.800;2023-02-13T15:17:42;4.20;99.90
20035;DHT22;10178;48.034;9.800;2023-02-13T15:20:24;4.20;99.90
20035;DHT22;10178;48.034;9.800;2023-02-13T15:22:51;4.30;99.90
20035;DHT22;10178;48.034;9.800;2023-02-13T15:27:51;4.30;99.90
20035;DHT22;10178;48.034;9.800;2023-02-13T15:30:32;4.30;99.90
20035;DHT22;10178;48.034;9.800;2023-02-13T15:33:21;4.30;99.90
20035;DHT22;10178;48.034;9.800;2023-02-13T15:35:59;4.30;99.90
20035;DHT22;10178;48.034;9.800;2023-02-13T15:38:27;4.30;99.90
20035;DHT22;10178;48.034;9.800;2023-02-13T15:41:07;4.30;99.90
20035;DHT22;10178;48.034;9.800;2023-02-13T15:43:41;4.20;99.90
20035;DHT22;10178;48.034;9.800;2023-02-13T15:46:20;4.20;99.90
20035;DHT22;10178;48.034;9.800;2023-02-13T15:48:49;4.20;99.90
20035;DHT22;10178;48.034;9.800;2023-02-13T15:51:33;4.20;99.90
20035;DHT22;10178;48.034;9.800;2023-02-13T15:54:02;4.20;99.90
20035;DHT22;10178;48.034;9.800;2023-02-13T15:56:29;4.10;99.90
20035;DHT22;10178;48.034;9.800;2023-02-13T15:58:56;4.10;99.90
20035;DHT22;10178;48.034;9.800;2023-02-13T16:01:23;4.20;99.90
20035;DHT22;10178;48.034;9.800;2023-02-13T16:03:53;4.10;99.90
20035;DHT22;10178;48.034;9.800;2023-02-13T16:06:22;4.20;99.90
20035;DHT22;10178;48.034;9.800;2023-02-13T16:08:56;4.30;99.90
20035;DHT22;10178;48.034;9.800;2023-02-13T16:16:23;4.20;99.90
20035;DHT22;10178;48.034;9.800;2023-02-13T16:18:49;4.20;99.90
20035;DHT22;10178;48.034;9.800;2023-02-13T16:21:15;4.20;99.90
20035;DHT22;10178;48.034;9.800;2023-02-13T16:23:45;4.10;99.90
20035;DHT22;10178;48.034;9.800;2023-02-13T16:26:14;4.10;99.90
20035;DHT22;10178;48.034;9.800;2023-02-13T16:28:40;4.10;99.90
20035;DHT22;10178;48.034;9.800;2023-02-13T16:31:14;4.10;99.90
20035;DHT22;10178;48.034;9.800;2023-02-13T16:33:41;4.10;99.90
20035;DHT22;10178;48.034;9.800;2023-02-13T16:38:40;4.10;99.90
20035;DHT22;10178;48.034;9.800;2023-02-13T16:44:03;4.10;99.90
20035;DHT22;10178;48.034;9.800;2023-02-13T16:46:40;4.10;99.90
20035;DHT22;10178;48.034;9.800;2023-02-13T16:54:27;4.00;99.90
20035;DHT22;10178;48.034;9.800;2023-02-13T16:57:05;3.90;99.90
20035;DHT22;10178;48.034;9.800;2023-02-13T16:59:53;3.90;99.90
20035;DHT22;10178;48.034;9.800;2023-02-13T17:02:22;3.90;99.90
20035;DHT22;10178;48.034;9.800;2023-02-13T17:04:55;3.90;99.90
20035;DHT22;10178;48.034;9.800;2023-02-13T17:07:27;4.10;99.90
20035;DHT22;10178;48.034;9.800;2023-02-13T17:09:56;4.10;99.90
20035;DHT22;10178;48.034;9.800;2023-02-13T17:12:22;4.20;99.90
20035;DHT22;10178;48.034;9.800;2023-02-13T17:14:48;4.10;99.90
20035;DHT22;10178;48.034;9.800;2023-02-13T17:17:20;4.20;99.90
20035;DHT22;10178;48.034;9.800;2023-02-13T17:19:47;4.10;99.90
20035;DHT22;10178;48.034;9.800;2023-02-13T17:24:54;4.10;99.90
20035;DHT22;10178;48.034;9.800;2023-02-13T17:27:20;4.10;99.90
20035;DHT22;10178;48.034;9.800;2023-02-13T17:29:46;4.10;99.90
20035;DHT22;10178;48.034;9.800;2023-02-13T17:32:17;4.10;99.90
20035;DHT22;10178;48.034;9.800;2023-02-13T17:34:43;4.10;99.90
20035;DHT22;10178;48.034;9.800;2023-02-13T17:37:25;4.10;99.90
20035;DHT22;10178;48.034;9.800;2023-02-13T17:39:52;4.10;99.90
20035;DHT22;10178;48.034;9.800;2023-02-13T17:42:26;4.00;99.90
20035;DHT22;10178;48.034;9.800;2023-02-13T17:44:56;4.00;99.90
20035;DHT22;10178;48.034;9.800;2023-02-13T17:47:23;4.00;99.90
20035;DHT22;10178;48.034;9.800;2023-02-13T17:49:50;4.10;99.90
20035;DHT22;10178;48.034;9.800;2023-02-13T17:52:21;4.00;99.90
20035;DHT22;10178;48.034;9.800;2023-02-13T17:54:48;4.00;99.90
20035;DHT22;10178;48.034;9.800;2023-02-13T17:57:15;4.10;99.90
20035;DHT22;10178;48.034;9.800;2023-02-13T17:59:42;4.10;99.90
20035;DHT22;10178;48.034;9.800;2023-02-13T18:02:22;3.90;99.90
20035;DHT22;10178;48.034;9.800;2023-02-13T18:04:48;3.80;99.90
20035;DHT22;10178;48.034;9.800;2023-02-13T18:07:19;3.90;99.90
20035;DHT22;10178;48.034;9.800;2023-02-13T18:09:45;3.90;99.90
20035;DHT22;10178;48.034;9.800;2023-02-13T18:12:17;3.90;99.90
20035;DHT22;10178;48.034;9.800;2023-02-13T18:14:44;3.90;99.90
20035;DHT22;10178;48.034;9.800;2023-02-13T18:17:10;4.00;99.90
20035;DHT22;10178;48.034;9.800;2023-02-13T18:19:36;4.10;99.90
20035;DHT22;10178;48.034;9.800;2023-02-13T18:22:03;4.00;99.90
20035;DHT22;10178;48.034;9.800;2023-02-13T18:24:31;4.00;99.90
20035;DHT22;10178;48.034;9.800;2023-02-13T18:26:57;3.90;99.90
20035;DHT22;10178;48.034;9.800;2023-02-13T18:29:24;3.90;99.90
20035;DHT22;10178;48.034;9.800;2023-02-13T18:31:50;4.00;99.90
20035;DHT22;10178;48.034;9.800;2023-02-13T18:34:20;4.00;99.90
20035;DHT22;10178;48.034;9.800;2023-02-13T18:36:46;4.10;99.90
20035;DHT22;10178;48.034;9.800;2023-02-13T18:39:12;3.70;99.90
20035;DHT22;10178;48.034;9.800;2023-02-13T18:41:38;3.60;99.90
20035;DHT22;10178;48.034;9.800;2023-02-13T18:44:03;3.40;99.90
20035;DHT22;10178;48.034;9.800;2023-02-13T18:46:29;3.60;99.90
20035;DHT22;10178;48.034;9.800;2023-02-13T18:48:55;3.70;99.90
20035;DHT22;10178;48.034;9.800;2023-02-13T18:51:20;3.80;99.90
20035;DHT22;10178;48.034;9.800;2023-02-13T18:53:46;3.40;99.90
20035;DHT22;10178;48.034;9.800;2023-02-13T18:56:12;3.40;99.90
20035;DHT22;10178;48.034;9.800;2023-02-13T18:58:38;3.40;99.90
20035;DHT22;10178;48.034;9.800;2023-02-13T19:01:09;3.50;99.90